»·PEaware :: N70U KSMX-KBFL

N70U :: KSMX-KBFL

FLIGHT INFORMATION

Flight Status: Arrived
Operator: Privately registered:
United States
More flights under this callsign
Pilot: Troy R. (16836)
Aircraft: CESSNA 172 SKYHAWK
(C172)
More flights by this aircraft type
Origin: KSMX Santa Maria Pub/Capt Hancock
United States
Destination: KBFL Meadows
United States
More flights between these airports :: More routes between these airports
Route: +NE
File this flight plan on PilotEdge
Remarks:
Altitude:
(Current/Filed)
0ft
Speed:
(Current/Filed)
0kts
Departed: 08-Oct-17 11:01 AM
Arrived: 08-Oct-17 12:01 PM
Distance/Time
Traveled:
153nm/1:00
Distance/Time
To Go:
Arrived

Flight Plot

Page will automatically refresh every two minutes.

Flight plan parsing failed; only flown route is shown


Map Options




Map Legend


Flown Route
Filed Route
Departure Airport
Arrival Airport
Navaid (VOR, NDB)
Fix

Horizontal Profiles

Position Reports

Time Latitude Longitude Heading Altitude Ground
Speed
08-Oct-17 11:04 34.993769 -120.242901 55 5652ft 112kts
08-Oct-17 11:05 35.007197 -120.205499 73 5708ft 117kts
08-Oct-17 11:06 35.016212 -120.166616 72 5550ft 113kts
08-Oct-17 11:07 35.026919 -120.132918 65 5487ft 102kts
08-Oct-17 11:08 35.041182 -120.103061 60 5631ft 101kts
08-Oct-17 11:09 35.048766 -120.088013 58 5720ft 105kts
08-Oct-17 11:10 35.048766 -120.088013 58 5720ft 105kts
08-Oct-17 11:11 35.049388 -120.086773 58 5723ft 105kts
08-Oct-17 11:12 35.049388 -120.086773 58 5723ft 105kts
08-Oct-17 11:13 35.049388 -120.086773 58 5723ft 105kts
08-Oct-17 11:14 35.049388 -120.086773 58 5723ft 105kts
08-Oct-17 11:33 35.054227 -120.076159 64 5732ft 108kts
08-Oct-17 11:34 35.068100 -120.041959 65 5746ft 116kts
08-Oct-17 11:35 35.081783 -120.005051 65 5622ft 121kts
08-Oct-17 11:36 35.094492 -119.966978 71 5456ft 117kts
08-Oct-17 11:37 35.105180 -119.930994 64 5302ft 109kts
08-Oct-17 11:38 35.115827 -119.899997 73 5567ft 103kts
08-Oct-17 11:39 35.126353 -119.864350 65 5596ft 114kts
08-Oct-17 11:40 35.139083 -119.828866 65 5420ft 111kts
08-Oct-17 11:42 35.153827 -119.796903 61 5394ft 106kts
08-Oct-17 11:43 35.167340 -119.765172 70 5403ft 105kts
08-Oct-17 11:44 35.181432 -119.735126 48 5512ft 103kts
08-Oct-17 11:45 35.198097 -119.705572 75 5525ft 107kts
08-Oct-17 11:46 35.206447 -119.670353 68 5625ft 111kts
08-Oct-17 11:47 35.217970 -119.636200 59 5643ft 111kts
08-Oct-17 11:48 35.229618 -119.600180 65 5587ft 115kts
08-Oct-17 11:49 35.243225 -119.564375 59 5340ft 118kts
08-Oct-17 11:50 35.256434 -119.530927 65 5500ft 100kts
08-Oct-17 11:50 35.267948 -119.504717 63 5598ft 106kts
08-Oct-17 11:52 35.283818 -119.464614 63 5685ft 113kts
08-Oct-17 11:52 35.294652 -119.433016 70 5455ft 122kts
08-Oct-17 11:53 35.309021 -119.397401 72 5459ft 115kts
08-Oct-17 11:54 35.318568 -119.360386 53 5423ft 117kts
08-Oct-17 11:56 35.335070 -119.319334 63 5333ft 117kts
08-Oct-17 11:56 35.348223 -119.289403 65 5254ft 119kts
08-Oct-17 11:57 35.361143 -119.254260 62 5312ft 112kts
08-Oct-17 11:58 35.375944 -119.222169 61 5370ft 109kts
08-Oct-17 11:59 35.393054 -119.191924 62 5423ft 105kts
08-Oct-17 12:00 35.407044 -119.157436 71 5180ft 120kts
08-Oct-17 12:01 35.407845 -119.120349 110 4399ft 112kts
08-Oct-17 12:02 35.408551 -119.079928 51 2336ft 155kts
08-Oct-17 12:03 35.407939 -119.039962 111 1281ft 90kts
08-Oct-17 12:04 35.424083 -119.044488 317 635ft 95kts
08-Oct-17 12:05 35.436790 -119.059367 135 510ft 12kts
08-Oct-17 12:06 35.436349 -119.057757 96 510ft 0kts
08-Oct-17 12:07 35.435961 -119.056535 141 510ft 20kts
08-Oct-17 12:08 35.436431 -119.054860 332 510ft 0kts
08-Oct-17 12:09 33.946090 -118.402243 350 129ft 6kts
08-Oct-17 12:10 33.948102 -118.402422 347 129ft 6kts
08-Oct-17 12:11 33.948123 -118.402428 338 129ft 0kts
08-Oct-17 12:12 33.948123 -118.402428 338 129ft 0kts
08-Oct-17 12:13 33.948123 -118.402428 338 129ft 0kts
08-Oct-17 12:14 33.948123 -118.402428 338 129ft 0kts
08-Oct-17 12:15 34.588338 -117.376333 313 2888ft 0kts
08-Oct-17 12:16 34.588338 -117.376333 313 2888ft 0kts
08-Oct-17 12:17 34.588338 -117.376333 313 2888ft 0kts
08-Oct-17 12:18 34.588338 -117.376333 313 2888ft 0kts
08-Oct-17 12:19 34.588338 -117.376333 313 2888ft 0kts
08-Oct-17 12:20 34.588338 -117.376333 313 2888ft 0kts

Navigation Log

Ident Type
Flight plan parsing failed, navigation log unavailable